Weather reports worldwide

Advertisment
Ayamonte, Spain (8381): temperature & dewpoint: 27.06.2020 19:00:00 - 03.07.2020 19:00:00 (CEST)Ayamonte, Spain (8381): wind speed & gusts: 27.06.2020 19:00:00 - 03.07.2020 19:00:00 (CEST)Ayamonte, Spain (8381): wind direction: 27.06.2020 19:00:00 - 03.07.2020 19:00:00 (CEST)Ayamonte, Spain (8381): reduced air pressure: 27.06.2020 19:00:00 - 03.07.2020 19:00:00 (CEST)Ayamonte, Spain (8381): precipitation: 27.06.2020 19:00:00 - 03.07.2020 19:00:00 (CEST)
Date & Time tt [°C] td [°C] ff [km/h] ff [kn] fx [km/h] fx [kn] dd ppp [hPa] rr [mm]
03.07.2020 19:00:00 - - - - - - - - -
03.07.2020 18:00:00 27,6 12,4 13 7 23 13 WSW 1016,3 0,0
03.07.2020 17:00:00 27,2 13,2 15 8 28 15 WSW 1016,7 0,0
03.07.2020 16:00:00 26,0 13,5 15 8 29 16 WSW 1017,4 0,0
03.07.2020 15:00:00 26,2 13,0 15 8 24 13 WSW 1017,7 0,0
03.07.2020 14:00:00 25,0 12,2 15 8 24 13 SW 1018,1 -
03.07.2020 13:00:00 26,3 12,0 7 4 19 11 W 1018,2 0,0
03.07.2020 12:00:00 24,3 10,9 10 5 23 13 NNW 1018,4 0,0
03.07.2020 11:00:00 21,5 10,6 11 6 29 15 NNW 1018,3 0,0
03.07.2020 10:00:00 18,8 9,6 14 7 37 20 NNW 1018,2 0,0
03.07.2020 09:00:00 17,6 9,2 11 6 33 18 NNW 1017,9 0,0
03.07.2020 08:00:00 16,6 8,3 14 7 37 20 NNW 1017,6 -
03.07.2020 07:00:00 16,6 8,0 13 7 38 20 NNW 1017,2 0,0
03.07.2020 06:00:00 17,1 8,0 15 8 38 21 NNW 1017,3 0,0
03.07.2020 05:00:00 17,8 8,4 14 8 36 19 NNW 1017,2 0,0
03.07.2020 04:00:00 18,6 8,8 14 8 35 19 NNW 1017,6 0,0
03.07.2020 03:00:00 19,7 8,7 13 7 36 19 NNW 1017,8 0,0
03.07.2020 02:00:00 21,2 8,5 16 9 36 19 NNW 1017,9 -
03.07.2020 01:00:00 22,9 8,5 19 10 33 18 NNW 1017,7 0,0
03.07.2020 00:00:00 24,5 9,7 13 7 35 19 NNW 1017,5 0,0
02.07.2020 23:00:00 26,5 10,6 14 7 28 15 NNW 1016,5 0,0
02.07.2020 22:00:00 28,3 11,3 13 7 29 16 NNW 1015,7 0,0
02.07.2020 21:00:00 30,1 12,1 13 7 27 15 NNW 1015,1 0,0
02.07.2020 20:00:00 31,7 14,8 10 5 25 14 NNW 1014,8 -
02.07.2020 19:00:00 29,3 16,8 7 4 18 10 SW 1015,1 0,0
02.07.2020 18:00:00 28,9 16,8 12 6 22 12 SW 1015,4 0,0
02.07.2020 17:00:00 28,9 16,1 13 7 24 13 SW 1015,6 0,0
02.07.2020 16:00:00 29,8 15,9 13 7 26 14 WSW 1016,2 0,0
02.07.2020 15:00:00 29,1 14,1 14 8 24 13 SW 1016,6 0,0
02.07.2020 14:00:00 31,2 13,5 9 5 24 13 NW 1016,8 -
02.07.2020 13:00:00 29,4 13,6 8 5 25 13 NNW 1017,0 0,0
02.07.2020 12:00:00 27,3 13,7 11 6 28 15 NNW 1017,1 0,0
02.07.2020 11:00:00 25,1 13,7 10 6 24 13 NNW 1016,7 0,0
02.07.2020 10:00:00 23,1 13,6 9 5 28 15 NNW 1016,7 0,0
02.07.2020 09:00:00 21,2 13,9 11 6 29 16 NNW 1016,0 0,0
02.07.2020 08:00:00 19,7 13,9 10 5 34 18 NNW 1015,5 -
02.07.2020 07:00:00 19,9 13,6 9 5 28 15 NNW 1015,1 0,0
02.07.2020 06:00:00 20,6 13,6 9 5 30 16 NNW 1014,6 0,0
02.07.2020 05:00:00 21,6 13,8 10 5 31 17 NNW 1014,0 0,0
02.07.2020 04:00:00 22,4 13,9 13 7 32 17 NNW 1014,0 0,0
02.07.2020 03:00:00 23,5 13,9 11 6 36 19 NNW 1014,3 0,0
02.07.2020 02:00:00 24,7 13,9 14 8 32 18 NNW 1014,2 -
02.07.2020 01:00:00 26,1 14,2 14 8 29 16 NNW 1013,8 0,0
02.07.2020 00:00:00 27,3 14,7 10 6 28 15 NNW 1013,5 0,0
01.07.2020 23:00:00 25,4 16,2 5 3 12 6 NW 1012,8 0,0
01.07.2020 22:00:00 25,3 15,9 3 2 15 8 SW 1012,3 0,0
01.07.2020 21:00:00 26,1 16,4 9 5 23 12 WSW 1012,1 0,0
01.07.2020 20:00:00 27,0 16,6 13 7 26 14 WSW 1012,5 -
01.07.2020 19:00:00 27,3 16,6 16 9 28 15 WSW 1012,9 0,0
01.07.2020 18:00:00 26,3 16,8 16 9 29 16 SW 1013,4 0,0
01.07.2020 17:00:00 26,2 16,7 17 9 30 16 SW 1014,1 0,0
01.07.2020 16:00:00 25,8 17,7 16 8 23 13 SW 1014,4 0,0
01.07.2020 15:00:00 25,4 18,1 12 6 21 12 SSW 1014,4 0,0
01.07.2020 14:00:00 25,6 17,2 13 7 22 12 S 1014,6 -
01.07.2020 13:00:00 26,0 16,0 9 5 21 11 SE 1014,2 0,0
01.07.2020 12:00:00 27,3 15,3 6 3 17 9 NNW 1014,7 0,0
01.07.2020 11:00:00 24,6 14,7 5 3 21 12 NNW 1014,6 0,0
01.07.2020 10:00:00 22,9 15,0 6 3 18 10 N 1014,3 0,0
01.07.2020 09:00:00 21,2 14,8 4 2 15 8 N 1013,9 0,0
01.07.2020 08:00:00 19,6 14,8 6 4 14 7 NNW 1013,6 -
01.07.2020 07:00:00 19,5 14,7 6 4 16 9 NNW 1013,1 0,0
01.07.2020 06:00:00 20,2 15,0 6 3 16 9 NNW 1012,7 0,0
01.07.2020 05:00:00 20,7 14,8 8 5 20 11 NNW 1012,3 0,0
01.07.2020 04:00:00 21,3 14,7 7 4 13 7 NNW 1012,2 0,0
01.07.2020 03:00:00 20,6 14,0 1 1 7 4 N 1012,5 0,0
01.07.2020 02:00:00 20,1 17,5 1 1 4 2 ENE 1012,5 -
01.07.2020 01:00:00 21,0 17,8 1 0 6 3 NE 1012,4 0,0
01.07.2020 00:00:00 21,6 17,6 1 1 4 2 S 1012,0 0,0
30.06.2020 23:00:00 22,2 17,8 3 2 6 3 ESE 1011,4 0,0
30.06.2020 22:00:00 23,3 17,3 2 1 13 7 SSE 1010,5 0,0
30.06.2020 21:00:00 24,6 18,5 8 4 18 10 SSW 1010,4 0,0
30.06.2020 20:00:00 26,3 18,5 13 7 18 10 SW 1010,2 -
30.06.2020 19:00:00 27,7 16,6 9 5 14 8 SW 1010,2 0,0
30.06.2020 18:00:00 28,2 16,1 8 5 15 8 SSW 1010,9 0,0
30.06.2020 17:00:00 27,8 16,7 9 5 16 8 SSW 1011,2 0,0
30.06.2020 16:00:00 28,6 15,5 9 5 16 9 S 1011,7 0,0
30.06.2020 15:00:00 27,8 15,4 7 4 16 8 SSW 1012,2 0,0
30.06.2020 14:00:00 27,8 14,8 10 5 16 9 S 1012,5 -
30.06.2020 13:00:00 28,7 14,5 8 5 17 9 SSW 1012,5 0,0
30.06.2020 12:00:00 27,4 14,0 8 4 16 8 SSW 1012,2 0,0
30.06.2020 11:00:00 26,8 13,9 8 4 15 8 S 1011,9 0,0
30.06.2020 10:00:00 26,1 15,8 2 1 9 5 NNW 1011,5 0,0
30.06.2020 09:00:00 23,5 15,0 3 2 12 7 N 1011,2 0,0
30.06.2020 08:00:00 22,0 14,1 4 2 13 7 N 1010,9 -
30.06.2020 07:00:00 21,9 14,0 3 1 11 6 N 1010,2 0,0
30.06.2020 06:00:00 22,6 14,4 2 1 9 5 N 1010,0 0,0
30.06.2020 05:00:00 23,6 14,9 1 1 11 6 E 1010,3 0,0
30.06.2020 04:00:00 23,9 15,2 0 0 11 6 N 1010,8 0,0
30.06.2020 03:00:00 24,3 15,5 4 2 10 5 N 1011,1 0,0
30.06.2020 02:00:00 25,5 15,8 2 1 10 5 WNW 1011,1 -
30.06.2020 01:00:00 22,4 16,0 3 2 9 5 SW 1011,0 0,0
30.06.2020 00:00:00 23,3 16,1 0 0 9 5 E 1011,0 0,0
29.06.2020 23:00:00 24,2 16,5 6 3 14 8 WSW 1010,9 0,0
29.06.2020 22:00:00 24,9 15,5 7 4 15 8 SW 1010,6 0,0
29.06.2020 21:00:00 28,3 15,6 8 4 20 11 WSW 1010,5 0,0
29.06.2020 20:00:00 30,1 16,1 11 6 21 11 WSW 1010,8 -
29.06.2020 19:00:00 29,9 16,3 12 6 23 12 WSW 1011,2 0,0
29.06.2020 18:00:00 29,0 15,9 13 7 24 13 WSW 1011,9 0,0
29.06.2020 17:00:00 29,5 16,6 14 8 25 14 SW 1012,3 0,0
29.06.2020 16:00:00 27,5 16,7 16 8 26 14 SW 1013,0 0,0
29.06.2020 15:00:00 27,9 17,1 16 8 27 14 SW 1013,4 0,0
29.06.2020 14:00:00 28,8 16,7 12 7 22 12 SW 1013,7 -
29.06.2020 13:00:00 29,9 16,3 11 6 18 10 WSW 1014,1 0,0
29.06.2020 12:00:00 28,6 16,2 7 4 23 12 NNW 1014,5 0,0
29.06.2020 11:00:00 26,1 16,4 9 5 23 12 NNW 1014,6 0,0
29.06.2020 10:00:00 23,6 16,1 9 5 29 16 NNW 1014,8 0,0
29.06.2020 09:00:00 21,6 16,1 11 6 29 15 NNW 1014,5 0,0
29.06.2020 08:00:00 20,5 15,7 12 6 29 16 NNW 1014,0 -
29.06.2020 07:00:00 20,6 15,3 15 8 35 19 NNW 1013,6 0,0
29.06.2020 06:00:00 21,2 15,3 14 7 34 19 NNW 1013,4 0,0
29.06.2020 05:00:00 22,0 15,1 14 8 32 17 NNW 1013,6 0,0
29.06.2020 04:00:00 23,1 14,6 16 8 32 18 NNW 1013,9 0,0
29.06.2020 03:00:00 24,4 14,8 15 8 33 18 NNW 1014,4 0,0
29.06.2020 02:00:00 25,8 14,9 16 8 33 18 NNW 1014,6 -
29.06.2020 01:00:00 27,2 14,9 14 8 32 17 NNW 1014,5 0,0
29.06.2020 00:00:00 28,7 15,6 12 6 25 14 NNW 1014,3 0,0
28.06.2020 23:00:00 26,4 15,2 5 3 15 8 W 1013,8 0,0
28.06.2020 22:00:00 27,4 14,7 8 5 16 9 W 1013,5 0,0
28.06.2020 21:00:00 29,8 15,5 8 5 19 10 WSW 1013,4 0,0
28.06.2020 20:00:00 30,4 16,0 10 5 23 13 WSW 1013,5 -
28.06.2020 19:00:00 31,2 16,4 12 7 24 13 WSW 1013,8 0,0
28.06.2020 18:00:00 31,2 16,4 15 8 28 15 WSW 1014,4 0,0
28.06.2020 17:00:00 29,6 16,0 15 8 31 17 WSW 1014,7 0,0
28.06.2020 16:00:00 28,4 16,0 17 9 28 15 SW 1015,4 0,0
28.06.2020 15:00:00 28,3 15,9 15 8 24 13 SW 1015,8 0,0
28.06.2020 14:00:00 31,1 16,3 11 6 21 11 WSW 1016,0 -
28.06.2020 13:00:00 29,8 15,2 8 4 22 12 NW 1016,4 0,0
28.06.2020 12:00:00 27,2 15,3 10 5 29 16 N 1016,5 0,0
28.06.2020 11:00:00 24,6 15,5 14 7 27 15 NNW 1016,6 0,0
28.06.2020 10:00:00 22,9 16,0 11 6 28 15 NNW 1016,7 0,0
28.06.2020 09:00:00 21,3 16,0 12 6 32 17 NNW 1016,4 0,0
28.06.2020 08:00:00 19,9 16,0 12 7 30 16 NNW 1016,3 -
28.06.2020 07:00:00 19,8 15,4 11 6 27 15 NNW 1016,1 0,0
28.06.2020 06:00:00 20,7 15,3 11 6 27 14 NNW 1015,8 0,0
28.06.2020 05:00:00 21,4 15,3 10 5 30 16 NNW 1016,0 0,0
28.06.2020 04:00:00 22,3 15,2 13 7 30 16 NNW 1015,9 0,0
28.06.2020 03:00:00 22,9 15,0 15 8 29 16 NNW 1015,9 0,0
28.06.2020 02:00:00 23,6 14,9 14 8 35 19 NNW 1016,0 -
28.06.2020 01:00:00 24,2 14,9 16 9 31 17 NNW 1016,0 0,0
28.06.2020 00:00:00 24,9 14,6 13 7 32 18 NNW 1015,9 0,0
27.06.2020 23:00:00 26,2 15,3 11 6 24 13 NNW 1015,4 0,0
27.06.2020 22:00:00 23,1 16,4 4 2 16 9 WSW 1014,6 0,0
27.06.2020 21:00:00 24,5 15,7 11 6 24 13 WSW 1014,6 0,0
27.06.2020 20:00:00 26,1 14,9 14 8 31 17 SW 1014,8 -
27.06.2020 19:00:00 26,2 14,6 16 9 29 16 SW 1015,2 0,0

tt = temperature
td = dewpoint
ff = wind speed
fx = gusts
dd = wind direction
ppp = reduced air pressure
rr = precipitation

Next stations